Terminal Aerodrome Forecast
Issued by NWS Pocatello, ID

Home | Current Version | Previous Version | Text Only | Print | Product List | Glossary On
Versions: 1 2 3 4 5 6 7 8 9 10 11 12 13 14 15 16 17 18 19 20 21 22 23 24 25 26 27 28 29 30 31 32
000
FTUS45 KPIH 241120
TAFIDA
TAF
KIDA 241120Z 2412/2512 22010KT P6SM SCT200
     FM241600 23015KT P6SM FEW110 SCT200
     FM242000 23021G31KT P6SM VCSH SCT045 BKN060
     FM250100 VRB06KT P6SM VCSH SCT040 BKN060
     FM250500 35006KT P6SM BKN070=

USA.gov is the U.S. government's official web portal to all federal, state and local government web resources and services.